sensor_id;sensor_type;location;lat;lon;timestamp;pressure;altitude;pressure_sealevel;temperature;humidity
33265;BME280;31404;53.974;-1.086;2024-01-30T00:00:32;101747.18;;;8.49;100.00
33265;BME280;31404;53.974;-1.086;2024-01-30T00:05:35;101742.12;;;7.78;100.00
33265;BME280;31404;53.974;-1.086;2024-01-30T00:10:35;101730.47;;;8.27;100.00
33265;BME280;31404;53.974;-1.086;2024-01-30T00:15:35;101732.18;;;7.86;100.00
33265;BME280;31404;53.974;-1.086;2024-01-30T00:20:34;101727.52;;;8.40;100.00
33265;BME280;31404;53.974;-1.086;2024-01-30T00:25:34;101724.14;;;8.55;100.00
33265;BME280;31404;53.974;-1.086;2024-01-30T00:30:34;101723.20;;;9.16;100.00
33265;BME280;31404;53.974;-1.086;2024-01-30T00:35:34;101726.61;;;7.66;100.00
33265;BME280;31404;53.974;-1.086;2024-01-30T00:40:35;101719.49;;;7.13;100.00
33265;BME280;31404;53.974;-1.086;2024-01-30T00:45:35;101712.40;;;7.45;100.00
33265;BME280;31404;53.974;-1.086;2024-01-30T00:50:35;101714.49;;;7.03;100.00
33265;BME280;31404;53.974;-1.086;2024-01-30T00:55:36;101711.63;;;6.20;100.00
33265;BME280;31404;53.974;-1.086;2024-01-30T01:00:35;101705.77;;;6.13;100.00
33265;BME280;31404;53.974;-1.086;2024-01-30T01:05:35;101700.43;;;6.02;100.00
33265;BME280;31404;53.974;-1.086;2024-01-30T01:10:35;101692.88;;;7.18;100.00
33265;BME280;31404;53.974;-1.086;2024-01-30T01:15:35;101693.68;;;7.25;100.00
33265;BME280;31404;53.974;-1.086;2024-01-30T01:20:36;101704.18;;;5.90;100.00
33265;BME280;31404;53.974;-1.086;2024-01-30T01:25:34;101702.40;;;5.92;100.00
33265;BME280;31404;53.974;-1.086;2024-01-30T01:30:36;101694.08;;;6.52;100.00
33265;BME280;31404;53.974;-1.086;2024-01-30T01:35:35;101689.04;;;6.88;100.00
33265;BME280;31404;53.974;-1.086;2024-01-30T01:40:35;101687.95;;;6.60;100.00
33265;BME280;31404;53.974;-1.086;2024-01-30T01:45:35;101682.28;;;6.92;100.00
33265;BME280;31404;53.974;-1.086;2024-01-30T01:50:36;101680.31;;;7.16;100.00
33265;BME280;31404;53.974;-1.086;2024-01-30T01:55:36;101674.99;;;6.89;100.00
33265;BME280;31404;53.974;-1.086;2024-01-30T02:00:36;101675.36;;;6.49;100.00
33265;BME280;31404;53.974;-1.086;2024-01-30T02:05:34;101676.69;;;6.58;100.00
33265;BME280;31404;53.974;-1.086;2024-01-30T02:10:34;101678.78;;;5.96;100.00
33265;BME280;31404;53.974;-1.086;2024-01-30T02:15:34;101676.81;;;6.39;100.00
33265;BME280;31404;53.974;-1.086;2024-01-30T02:20:35;101675.66;;;5.60;100.00
33265;BME280;31404;53.974;-1.086;2024-01-30T02:25:38;101671.58;;;5.81;100.00
33265;BME280;31404;53.974;-1.086;2024-01-30T02:30:34;101668.67;;;6.81;100.00
33265;BME280;31404;53.974;-1.086;2024-01-30T02:35:34;101670.27;;;5.37;100.00
33265;BME280;31404;53.974;-1.086;2024-01-30T02:40:34;101670.90;;;5.38;100.00
33265;BME280;31404;53.974;-1.086;2024-01-30T02:45:34;101668.94;;;5.97;100.00
33265;BME280;31404;53.974;-1.086;2024-01-30T02:50:35;101672.82;;;5.50;100.00
33265;BME280;31404;53.974;-1.086;2024-01-30T02:55:35;101679.85;;;5.83;100.00
33265;BME280;31404;53.974;-1.086;2024-01-30T03:00:34;101678.79;;;6.30;100.00
33265;BME280;31404;53.974;-1.086;2024-01-30T03:05:34;101679.16;;;5.56;100.00
33265;BME280;31404;53.974;-1.086;2024-01-30T03:10:34;101683.31;;;5.77;100.00
33265;BME280;31404;53.974;-1.086;2024-01-30T03:15:34;101682.42;;;4.86;100.00
33265;BME280;31404;53.974;-1.086;2024-01-30T03:20:34;101683.07;;;5.41;100.00
33265;BME280;31404;53.974;-1.086;2024-01-30T03:25:34;101682.53;;;5.51;100.00
33265;BME280;31404;53.974;-1.086;2024-01-30T03:30:35;101688.86;;;4.58;100.00
33265;BME280;31404;53.974;-1.086;2024-01-30T03:35:35;101691.78;;;4.79;100.00
33265;BME280;31404;53.974;-1.086;2024-01-30T03:40:35;101698.94;;;5.90;100.00
33265;BME280;31404;53.974;-1.086;2024-01-30T03:45:35;101693.89;;;4.62;100.00
33265;BME280;31404;53.974;-1.086;2024-01-30T03:50:35;101682.02;;;4.85;100.00
33265;BME280;31404;53.974;-1.086;2024-01-30T03:55:35;101686.94;;;5.05;100.00
33265;BME280;31404;53.974;-1.086;2024-01-30T04:00:34;101688.27;;;5.46;100.00
33265;BME280;31404;53.974;-1.086;2024-01-30T04:05:34;101697.43;;;4.48;100.00
33265;BME280;31404;53.974;-1.086;2024-01-30T04:10:34;101706.93;;;4.26;100.00
33265;BME280;31404;53.974;-1.086;2024-01-30T04:15:34;101711.78;;;3.62;100.00
33265;BME280;31404;53.974;-1.086;2024-01-30T04:20:35;101723.03;;;3.38;100.00
33265;BME280;31404;53.974;-1.086;2024-01-30T04:25:35;101733.40;;;3.45;100.00
33265;BME280;31404;53.974;-1.086;2024-01-30T04:30:35;101744.18;;;3.25;100.00
33265;BME280;31404;53.974;-1.086;2024-01-30T04:35:36;101758.64;;;3.67;100.00
33265;BME280;31404;53.974;-1.086;2024-01-30T04:40:35;101763.04;;;3.15;100.00
33265;BME280;31404;53.974;-1.086;2024-01-30T04:45:35;101768.83;;;3.43;100.00
33265;BME280;31404;53.974;-1.086;2024-01-30T04:50:35;101781.14;;;3.11;100.00
33265;BME280;31404;53.974;-1.086;2024-01-30T04:55:35;101783.40;;;3.48;100.00
33265;BME280;31404;53.974;-1.086;2024-01-30T05:00:34;101802.09;;;3.31;100.00
33265;BME280;31404;53.974;-1.086;2024-01-30T05:05:34;101813.38;;;2.86;100.00
33265;BME280;31404;53.974;-1.086;2024-01-30T05:10:34;101826.02;;;3.14;100.00
33265;BME280;31404;53.974;-1.086;2024-01-30T05:15:34;101827.02;;;2.41;100.00
33265;BME280;31404;53.974;-1.086;2024-01-30T05:20:34;101834.80;;;2.57;100.00
33265;BME280;31404;53.974;-1.086;2024-01-30T05:25:34;101843.81;;;2.50;100.00
33265;BME280;31404;53.974;-1.086;2024-01-30T05:30:34;101863.55;;;2.36;100.00
33265;BME280;31404;53.974;-1.086;2024-01-30T05:35:34;101876.54;;;2.36;100.00
33265;BME280;31404;53.974;-1.086;2024-01-30T05:40:34;101892.91;;;2.11;100.00
33265;BME280;31404;53.974;-1.086;2024-01-30T05:45:34;101900.78;;;2.46;100.00
33265;BME280;31404;53.974;-1.086;2024-01-30T05:50:34;101911.44;;;2.29;100.00
33265;BME280;31404;53.974;-1.086;2024-01-30T05:55:34;101923.73;;;2.40;100.00
33265;BME280;31404;53.974;-1.086;2024-01-30T06:00:34;101934.00;;;1.91;100.00
33265;BME280;31404;53.974;-1.086;2024-01-30T06:05:34;101947.50;;;2.49;100.00
33265;BME280;31404;53.974;-1.086;2024-01-30T06:10:35;101963.60;;;2.04;100.00
33265;BME280;31404;53.974;-1.086;2024-01-30T06:15:35;101973.79;;;2.50;100.00
33265;BME280;31404;53.974;-1.086;2024-01-30T06:20:34;101980.38;;;2.34;100.00
33265;BME280;31404;53.974;-1.086;2024-01-30T06:25:37;101996.41;;;2.29;100.00
33265;BME280;31404;53.974;-1.086;2024-01-30T06:30:35;102002.94;;;2.43;100.00
33265;BME280;31404;53.974;-1.086;2024-01-30T06:35:35;102010.34;;;2.58;100.00
33265;BME280;31404;53.974;-1.086;2024-01-30T06:40:35;102025.07;;;2.19;100.00
33265;BME280;31404;53.974;-1.086;2024-01-30T06:45:35;102027.32;;;2.98;100.00
33265;BME280;31404;53.974;-1.086;2024-01-30T06:50:35;102035.71;;;2.58;100.00
33265;BME280;31404;53.974;-1.086;2024-01-30T06:55:35;102049.14;;;1.90;100.00
33265;BME280;31404;53.974;-1.086;2024-01-30T07:00:35;102061.49;;;1.82;100.00
33265;BME280;31404;53.974;-1.086;2024-01-30T07:05:35;102069.83;;;1.60;100.00
33265;BME280;31404;53.974;-1.086;2024-01-30T07:10:35;102083.33;;;1.66;100.00
33265;BME280;31404;53.974;-1.086;2024-01-30T07:15:35;102093.15;;;1.78;100.00
33265;BME280;31404;53.974;-1.086;2024-01-30T07:20:34;102100.08;;;1.39;100.00
33265;BME280;31404;53.974;-1.086;2024-01-30T07:25:34;102122.18;;;1.34;100.00
33265;BME280;31404;53.974;-1.086;2024-01-30T07:30:34;102137.81;;;1.49;100.00
33265;BME280;31404;53.974;-1.086;2024-01-30T07:35:34;102160.10;;;0.82;100.00
33265;BME280;31404;53.974;-1.086;2024-01-30T07:40:34;102164.93;;;0.91;100.00
33265;BME280;31404;53.974;-1.086;2024-01-30T07:45:39;102184.15;;;1.61;100.00
33265;BME280;31404;53.974;-1.086;2024-01-30T07:50:34;102185.27;;;1.81;100.00
33265;BME280;31404;53.974;-1.086;2024-01-30T07:55:34;102208.00;;;1.76;100.00
33265;BME280;31404;53.974;-1.086;2024-01-30T08:00:34;102227.90;;;1.91;100.00
33265;BME280;31404;53.974;-1.086;2024-01-30T08:05:35;102242.92;;;1.47;100.00
33265;BME280;31404;53.974;-1.086;2024-01-30T08:10:34;102242.70;;;1.82;100.00
33265;BME280;31404;53.974;-1.086;2024-01-30T08:15:35;102243.31;;;2.35;100.00
33265;BME280;31404;53.974;-1.086;2024-01-30T08:20:35;102264.17;;;2.18;100.00
33265;BME280;31404;53.974;-1.086;2024-01-30T08:25:35;102278.65;;;2.07;100.00
33265;BME280;31404;53.974;-1.086;2024-01-30T08:30:35;102301.28;;;1.35;100.00
33265;BME280;31404;53.974;-1.086;2024-01-30T08:35:35;102317.21;;;1.39;100.00
33265;BME280;31404;53.974;-1.086;2024-01-30T08:40:35;102331.21;;;2.22;100.00
33265;BME280;31404;53.974;-1.086;2024-01-30T08:45:35;102342.91;;;1.59;100.00
33265;BME280;31404;53.974;-1.086;2024-01-30T08:50:34;102363.04;;;2.00;100.00
33265;BME280;31404;53.974;-1.086;2024-01-30T08:55:34;102370.22;;;2.05;100.00
33265;BME280;31404;53.974;-1.086;2024-01-30T09:00:34;102388.23;;;1.97;100.00
33265;BME280;31404;53.974;-1.086;2024-01-30T09:05:34;102404.51;;;2.34;100.00
33265;BME280;31404;53.974;-1.086;2024-01-30T09:10:34;102418.69;;;1.36;100.00
33265;BME280;31404;53.974;-1.086;2024-01-30T09:15:35;102438.54;;;1.65;100.00
33265;BME280;31404;53.974;-1.086;2024-01-30T09:20:34;102453.38;;;2.62;100.00
33265;BME280;31404;53.974;-1.086;2024-01-30T09:25:34;102465.16;;;2.31;100.00
33265;BME280;31404;53.974;-1.086;2024-01-30T09:30:34;102474.47;;;1.93;100.00
33265;BME280;31404;53.974;-1.086;2024-01-30T09:35:35;102485.11;;;1.98;100.00
33265;BME280;31404;53.974;-1.086;2024-01-30T09:40:34;102494.89;;;1.89;100.00
33265;BME280;31404;53.974;-1.086;2024-01-30T09:45:35;102508.96;;;2.69;100.00
33265;BME280;31404;53.974;-1.086;2024-01-30T09:50:34;102517.23;;;1.61;100.00
33265;BME280;31404;53.974;-1.086;2024-01-30T09:55:36;102524.99;;;1.86;100.00
33265;BME280;31404;53.974;-1.086;2024-01-30T10:00:34;102533.86;;;1.58;100.00
33265;BME280;31404;53.974;-1.086;2024-01-30T10:05:36;102545.55;;;1.26;100.00
33265;BME280;31404;53.974;-1.086;2024-01-30T10:10:35;102550.24;;;3.00;100.00
33265;BME280;31404;53.974;-1.086;2024-01-30T10:15:34;102554.09;;;2.10;100.00
33265;BME280;31404;53.974;-1.086;2024-01-30T10:20:34;102565.84;;;2.17;100.00
33265;BME280;31404;53.974;-1.086;2024-01-30T10:25:35;102579.70;;;2.97;100.00
33265;BME280;31404;53.974;-1.086;2024-01-30T10:30:34;102590.53;;;2.58;100.00
33265;BME280;31404;53.974;-1.086;2024-01-30T10:35:35;102598.51;;;2.44;100.00
33265;BME280;31404;53.974;-1.086;2024-01-30T10:40:36;102606.70;;;2.32;100.00
33265;BME280;31404;53.974;-1.086;2024-01-30T10:45:36;102616.73;;;2.58;100.00
33265;BME280;31404;53.974;-1.086;2024-01-30T10:50:36;102617.94;;;2.34;100.00
33265;BME280;31404;53.974;-1.086;2024-01-30T10:55:35;102635.16;;;3.09;100.00
33265;BME280;31404;53.974;-1.086;2024-01-30T11:00:34;102635.71;;;2.61;100.00
33265;BME280;31404;53.974;-1.086;2024-01-30T11:05:34;102655.04;;;2.08;100.00
33265;BME280;31404;53.974;-1.086;2024-01-30T11:20:34;102668.22;;;2.30;100.00
33265;BME280;31404;53.974;-1.086;2024-01-30T11:25:34;102668.48;;;2.26;100.00
33265;BME280;31404;53.974;-1.086;2024-01-30T11:30:34;102674.97;;;2.18;100.00
33265;BME280;31404;53.974;-1.086;2024-01-30T11:35:36;102688.62;;;1.63;100.00
33265;BME280;31404;53.974;-1.086;2024-01-30T11:40:36;102687.79;;;1.71;100.00
33265;BME280;31404;53.974;-1.086;2024-01-30T11:45:36;102687.29;;;1.32;100.00
33265;BME280;31404;53.974;-1.086;2024-01-30T11:50:35;102688.06;;;1.26;100.00
33265;BME280;31404;53.974;-1.086;2024-01-30T11:55:34;102699.20;;;2.48;100.00
33265;BME280;31404;53.974;-1.086;2024-01-30T12:00:34;102711.37;;;2.64;100.00
33265;BME280;31404;53.974;-1.086;2024-01-30T12:05:34;102715.77;;;2.27;100.00
33265;BME280;31404;53.974;-1.086;2024-01-30T12:10:34;102710.38;;;2.48;100.00
33265;BME280;31404;53.974;-1.086;2024-01-30T12:15:34;102721.41;;;3.13;100.00
33265;BME280;31404;53.974;-1.086;2024-01-30T12:20:34;102735.71;;;1.88;100.00
33265;BME280;31404;53.974;-1.086;2024-01-30T12:25:35;102748.13;;;1.72;100.00
33265;BME280;31404;53.974;-1.086;2024-01-30T12:30:35;102746.71;;;2.45;100.00
33265;BME280;31404;53.974;-1.086;2024-01-30T12:35:35;102755.10;;;2.91;100.00
33265;BME280;31404;53.974;-1.086;2024-01-30T12:40:35;102763.82;;;3.11;100.00
33265;BME280;31404;53.974;-1.086;2024-01-30T12:45:35;102763.95;;;3.23;100.00
33265;BME280;31404;53.974;-1.086;2024-01-30T12:50:34;102762.53;;;2.82;100.00
33265;BME280;31404;53.974;-1.086;2024-01-30T12:55:35;102780.47;;;3.00;100.00
33265;BME280;31404;53.974;-1.086;2024-01-30T13:00:34;102781.82;;;3.55;100.00
33265;BME280;31404;53.974;-1.086;2024-01-30T13:05:35;102797.45;;;4.12;100.00
33265;BME280;31404;53.974;-1.086;2024-01-30T13:10:34;102803.38;;;4.57;100.00
33265;BME280;31404;53.974;-1.086;2024-01-30T13:15:34;102791.23;;;4.38;100.00
33265;BME280;31404;53.974;-1.086;2024-01-30T13:20:34;102778.52;;;3.91;100.00
33265;BME280;31404;53.974;-1.086;2024-01-30T13:25:34;102776.57;;;4.49;100.00
33265;BME280;31404;53.974;-1.086;2024-01-30T13:30:35;102775.88;;;4.58;100.00
33265;BME280;31404;53.974;-1.086;2024-01-30T13:35:35;102777.27;;;5.01;100.00
33265;BME280;31404;53.974;-1.086;2024-01-30T13:40:35;102771.47;;;5.45;100.00
33265;BME280;31404;53.974;-1.086;2024-01-30T13:45:35;102773.77;;;5.69;100.00
33265;BME280;31404;53.974;-1.086;2024-01-30T13:50:35;102775.80;;;5.56;97.83
33265;BME280;31404;53.974;-1.086;2024-01-30T13:55:35;102787.44;;;4.93;100.00
33265;BME280;31404;53.974;-1.086;2024-01-30T14:00:35;102776.95;;;5.76;94.46
33265;BME280;31404;53.974;-1.086;2024-01-30T14:05:35;102788.58;;;5.24;93.46
33265;BME280;31404;53.974;-1.086;2024-01-30T14:10:35;102797.45;;;4.83;92.56
33265;BME280;31404;53.974;-1.086;2024-01-30T14:15:35;102807.92;;;5.13;94.30
33265;BME280;31404;53.974;-1.086;2024-01-30T14:20:34;102815.38;;;3.91;93.76
33265;BME280;31404;53.974;-1.086;2024-01-30T14:25:34;102821.70;;;3.73;98.26
33265;BME280;31404;53.974;-1.086;2024-01-30T14:30:34;102831.17;;;4.22;98.05
33265;BME280;31404;53.974;-1.086;2024-01-30T14:35:34;102838.87;;;4.49;96.29
33265;BME280;31404;53.974;-1.086;2024-01-30T14:40:34;102847.87;;;5.04;90.06
33265;BME280;31404;53.974;-1.086;2024-01-30T14:45:34;102825.64;;;5.71;84.88
33265;BME280;31404;53.974;-1.086;2024-01-30T14:50:34;102839.24;;;3.46;85.13
33265;BME280;31404;53.974;-1.086;2024-01-30T14:55:34;102845.19;;;5.49;81.08
33265;BME280;31404;53.974;-1.086;2024-01-30T15:00:34;102845.83;;;5.14;77.88
33265;BME280;31404;53.974;-1.086;2024-01-30T15:05:34;102848.73;;;5.38;78.26
33265;BME280;31404;53.974;-1.086;2024-01-30T15:10:34;102864.60;;;3.98;83.59
33265;BME280;31404;53.974;-1.086;2024-01-30T15:15:34;102863.06;;;4.08;81.27
33265;BME280;31404;53.974;-1.086;2024-01-30T15:20:34;102852.28;;;5.96;82.41
33265;BME280;31404;53.974;-1.086;2024-01-30T15:25:35;102855.15;;;5.95;83.35
33265;BME280;31404;53.974;-1.086;2024-01-30T15:30:35;102861.28;;;6.31;73.36
33265;BME280;31404;53.974;-1.086;2024-01-30T15:35:35;102860.81;;;7.23;67.63
33265;BME280;31404;53.974;-1.086;2024-01-30T15:40:34;102873.34;;;7.87;66.16
33265;BME280;31404;53.974;-1.086;2024-01-30T15:45:40;102874.47;;;9.99;62.01
33265;BME280;31404;53.974;-1.086;2024-01-30T15:50:35;102885.32;;;9.11;61.49
33265;BME280;31404;53.974;-1.086;2024-01-30T15:55:35;102888.37;;;10.65;59.52
33265;BME280;31404;53.974;-1.086;2024-01-30T16:00:35;102904.72;;;8.65;61.56
33265;BME280;31404;53.974;-1.086;2024-01-30T16:05:34;102917.24;;;7.15;68.99
33265;BME280;31404;53.974;-1.086;2024-01-30T16:10:34;102919.38;;;7.62;72.41
33265;BME280;31404;53.974;-1.086;2024-01-30T16:15:34;102927.26;;;6.14;81.42
33265;BME280;31404;53.974;-1.086;2024-01-30T16:20:34;102932.72;;;6.46;80.07
33265;BME280;31404;53.974;-1.086;2024-01-30T16:25:34;102941.51;;;4.70;91.66
33265;BME280;31404;53.974;-1.086;2024-01-30T16:30:34;102955.01;;;3.58;98.90
33265;BME280;31404;53.974;-1.086;2024-01-30T16:35:34;102960.88;;;4.08;97.51
33265;BME280;31404;53.974;-1.086;2024-01-30T16:40:34;102957.46;;;3.38;100.00
33265;BME280;31404;53.974;-1.086;2024-01-30T16:45:34;102961.33;;;3.83;96.78
33265;BME280;31404;53.974;-1.086;2024-01-30T16:50:34;102966.60;;;4.64;93.95
33265;BME280;31404;53.974;-1.086;2024-01-30T16:55:34;102973.64;;;6.05;83.64
33265;BME280;31404;53.974;-1.086;2024-01-30T17:00:35;102973.64;;;4.65;92.22
33265;BME280;31404;53.974;-1.086;2024-01-30T17:05:34;102976.50;;;5.32;86.71
33265;BME280;31404;53.974;-1.086;2024-01-30T17:10:34;102982.50;;;4.54;91.93
33265;BME280;31404;53.974;-1.086;2024-01-30T17:15:34;102980.25;;;4.96;89.15
33265;BME280;31404;53.974;-1.086;2024-01-30T17:20:34;102985.66;;;5.67;86.65
33265;BME280;31404;53.974;-1.086;2024-01-30T17:25:34;102990.45;;;5.55;85.71
33265;BME280;31404;53.974;-1.086;2024-01-30T17:30:35;103002.83;;;5.71;83.24
33265;BME280;31404;53.974;-1.086;2024-01-30T17:35:29;103000.26;;;4.35;89.38
33265;BME280;31404;53.974;-1.086;2024-01-30T17:40:34;103015.91;;;5.22;100.00
33265;BME280;31404;53.974;-1.086;2024-01-30T17:45:34;103025.61;;;5.36;85.51
33265;BME280;31404;53.974;-1.086;2024-01-30T17:50:34;103043.67;;;5.91;83.27
33265;BME280;31404;53.974;-1.086;2024-01-30T17:55:34;103037.18;;;5.33;84.97
33265;BME280;31404;53.974;-1.086;2024-01-30T18:00:34;103053.38;;;4.41;89.20
33265;BME280;31404;53.974;-1.086;2024-01-30T18:05:34;103073.42;;;5.94;83.13
33265;BME280;31404;53.974;-1.086;2024-01-30T18:10:34;103076.20;;;5.62;83.32
33265;BME280;31404;53.974;-1.086;2024-01-30T18:15:34;103093.61;;;4.82;85.53
33265;BME280;31404;53.974;-1.086;2024-01-30T18:20:35;103104.45;;;5.07;88.10
33265;BME280;31404;53.974;-1.086;2024-01-30T18:25:34;103121.87;;;4.60;86.71
33265;BME280;31404;53.974;-1.086;2024-01-30T18:30:34;103114.03;;;5.03;86.62
33265;BME280;31404;53.974;-1.086;2024-01-30T18:35:34;103110.23;;;4.42;89.15
33265;BME280;31404;53.974;-1.086;2024-01-30T18:40:34;103097.27;;;5.23;86.90
33265;BME280;31404;53.974;-1.086;2024-01-30T18:45:34;103087.66;;;5.07;85.07
33265;BME280;31404;53.974;-1.086;2024-01-30T18:50:34;103084.44;;;6.43;79.23
33265;BME280;31404;53.974;-1.086;2024-01-30T18:55:35;103086.15;;;7.05;77.19
33265;BME280;31404;53.974;-1.086;2024-01-30T19:00:35;103086.17;;;6.84;77.18
33265;BME280;31404;53.974;-1.086;2024-01-30T19:05:35;103087.10;;;7.57;72.89
33265;BME280;31404;53.974;-1.086;2024-01-30T19:10:34;103094.93;;;6.50;77.97
33265;BME280;31404;53.974;-1.086;2024-01-30T19:15:34;103118.15;;;6.74;77.76
33265;BME280;31404;53.974;-1.086;2024-01-30T19:20:34;103105.87;;;6.63;76.88
33265;BME280;31404;53.974;-1.086;2024-01-30T19:25:34;103101.65;;;7.79;73.29
33265;BME280;31404;53.974;-1.086;2024-01-30T19:30:34;103108.97;;;6.36;75.14
33265;BME280;31404;53.974;-1.086;2024-01-30T19:35:34;103085.57;;;6.55;76.04
33265;BME280;31404;53.974;-1.086;2024-01-30T19:40:34;103098.88;;;4.61;88.12
33265;BME280;31404;53.974;-1.086;2024-01-30T19:45:34;103087.86;;;8.19;100.00
33265;BME280;31404;53.974;-1.086;2024-01-30T19:50:35;103095.86;;;7.23;80.06
33265;BME280;31404;53.974;-1.086;2024-01-30T19:55:35;103095.14;;;7.96;76.60
33265;BME280;31404;53.974;-1.086;2024-01-30T20:00:34;103104.47;;;6.33;81.17
33265;BME280;31404;53.974;-1.086;2024-01-30T20:10:34;103113.07;;;6.24;81.96
33265;BME280;31404;53.974;-1.086;2024-01-30T20:15:35;103127.00;;;4.73;88.15
33265;BME280;31404;53.974;-1.086;2024-01-30T20:25:34;103126.81;;;6.32;81.92
33265;BME280;31404;53.974;-1.086;2024-01-30T20:30:34;103133.67;;;4.88;86.78
33265;BME280;31404;53.974;-1.086;2024-01-30T20:35:34;103139.12;;;5.11;88.60
33265;BME280;31404;53.974;-1.086;2024-01-30T20:40:34;103131.32;;;5.47;86.94
33265;BME280;31404;53.974;-1.086;2024-01-30T20:45:34;103138.80;;;5.92;82.86
33265;BME280;31404;53.974;-1.086;2024-01-30T20:50:34;103148.80;;;4.50;89.12
33265;BME280;31404;53.974;-1.086;2024-01-30T20:55:35;103130.50;;;5.42;86.01
33265;BME280;31404;53.974;-1.086;2024-01-30T21:00:34;103152.26;;;4.28;90.44
33265;BME280;31404;53.974;-1.086;2024-01-30T21:05:34;103154.35;;;3.90;94.86
33265;BME280;31404;53.974;-1.086;2024-01-30T21:10:35;103161.65;;;4.27;93.52
33265;BME280;31404;53.974;-1.086;2024-01-30T21:15:35;103170.23;;;4.02;95.25
33265;BME280;31404;53.974;-1.086;2024-01-30T21:20:35;103161.42;;;5.85;85.62
33265;BME280;31404;53.974;-1.086;2024-01-30T21:25:35;103155.39;;;6.68;89.54
33265;BME280;31404;53.974;-1.086;2024-01-30T21:35:34;103153.94;;;6.62;81.56
33265;BME280;31404;53.974;-1.086;2024-01-30T21:40:34;103159.38;;;5.63;84.71
33265;BME280;31404;53.974;-1.086;2024-01-30T21:45:34;103161.99;;;6.53;79.62
33265;BME280;31404;53.974;-1.086;2024-01-30T21:50:35;103164.54;;;5.91;80.15
33265;BME280;31404;53.974;-1.086;2024-01-30T22:00:35;103168.40;;;7.62;74.93
33265;BME280;31404;53.974;-1.086;2024-01-30T22:05:34;103156.02;;;7.66;73.94
33265;BME280;31404;53.974;-1.086;2024-01-30T22:10:34;103168.20;;;6.91;76.35
33265;BME280;31404;53.974;-1.086;2024-01-30T22:15:37;103165.81;;;5.92;79.99
33265;BME280;31404;53.974;-1.086;2024-01-30T22:20:34;103163.68;;;5.10;85.23
33265;BME280;31404;53.974;-1.086;2024-01-30T22:25:34;103157.79;;;5.12;88.75
33265;BME280;31404;53.974;-1.086;2024-01-30T22:30:35;103155.35;;;5.65;86.03
33265;BME280;31404;53.974;-1.086;2024-01-30T22:35:34;103151.01;;;5.60;85.30
33265;BME280;31404;53.974;-1.086;2024-01-30T22:40:34;103163.09;;;4.71;92.26
33265;BME280;31404;53.974;-1.086;2024-01-30T22:45:34;103162.05;;;4.75;92.87
33265;BME280;31404;53.974;-1.086;2024-01-30T22:50:34;103159.36;;;4.82;92.38
33265;BME280;31404;53.974;-1.086;2024-01-30T22:55:34;103150.52;;;5.08;92.83
33265;BME280;31404;53.974;-1.086;2024-01-30T23:00:34;103153.02;;;4.45;94.66
33265;BME280;31404;53.974;-1.086;2024-01-30T23:05:34;103152.24;;;3.12;100.00
33265;BME280;31404;53.974;-1.086;2024-01-30T23:10:34;103159.09;;;3.04;100.00
33265;BME280;31404;53.974;-1.086;2024-01-30T23:15:35;103167.37;;;2.86;100.00
33265;BME280;31404;53.974;-1.086;2024-01-30T23:20:34;103151.79;;;4.61;98.69
33265;BME280;31404;53.974;-1.086;2024-01-30T23:25:34;103137.46;;;4.11;99.64
33265;BME280;31404;53.974;-1.086;2024-01-30T23:30:35;103136.49;;;3.33;100.00
33265;BME280;31404;53.974;-1.086;2024-01-30T23:35:35;103135.22;;;2.97;100.00
33265;BME280;31404;53.974;-1.086;2024-01-30T23:40:35;103127.33;;;3.81;100.00
33265;BME280;31404;53.974;-1.086;2024-01-30T23:45:35;103135.93;;;4.96;97.39
33265;BME280;31404;53.974;-1.086;2024-01-30T23:50:35;103125.47;;;4.87;93.51
33265;BME280;31404;53.974;-1.086;2024-01-30T23:55:35;103129.27;;;4.27;95.85
